sensor_id;sensor_type;location;lat;lon;timestamp;pressure;altitude;pressure_sealevel;temperature;humidity
18988;BME280;5494;51.796;10.952;2024-03-25T02:30:26;97626.13;;;4.07;100.00
18988;BME280;5494;51.796;10.952;2024-03-25T02:32:53;97620.56;;;3.97;100.00
18988;BME280;5494;51.796;10.952;2024-03-25T02:35:21;97623.47;;;3.90;100.00
18988;BME280;5494;51.796;10.952;2024-03-25T02:37:51;97630.50;;;3.86;100.00
18988;BME280;5494;51.796;10.952;2024-03-25T02:40:18;97631.47;;;3.84;100.00
18988;BME280;5494;51.796;10.952;2024-03-25T02:42:46;97623.53;;;3.88;100.00
18988;BME280;5494;51.796;10.952;2024-03-25T02:45:13;97620.97;;;3.88;100.00
18988;BME280;5494;51.796;10.952;2024-03-25T02:47:41;97629.47;;;3.90;100.00
18988;BME280;5494;51.796;10.952;2024-03-25T02:50:10;97634.47;;;3.93;100.00
18988;BME280;5494;51.796;10.952;2024-03-25T02:52:38;97630.97;;;3.94;100.00
18988;BME280;5494;51.796;10.952;2024-03-25T02:55:05;97639.31;;;4.00;100.00
18988;BME280;5494;51.796;10.952;2024-03-25T02:57:32;97645.31;;;4.00;100.00
18988;BME280;5494;51.796;10.952;2024-03-25T02:59:58;97646.03;;;4.02;100.00
18988;BME280;5494;51.796;10.952;2024-03-25T03:02:25;97641.75;;;4.03;100.00
18988;BME280;5494;51.796;10.952;2024-03-25T03:04:53;97633.19;;;4.02;100.00
18988;BME280;5494;51.796;10.952;2024-03-25T03:07:20;97646.50;;;3.93;100.00
18988;BME280;5494;51.796;10.952;2024-03-25T03:09:46;97648.91;;;3.96;100.00
18988;BME280;5494;51.796;10.952;2024-03-25T03:12:13;97656.78;;;3.93;100.00
18988;BME280;5494;51.796;10.952;2024-03-25T03:14:39;97652.66;;;3.89;100.00
18988;BME280;5494;51.796;10.952;2024-03-25T03:17:06;97662.09;;;3.88;100.00
18988;BME280;5494;51.796;10.952;2024-03-25T03:19:33;97671.75;;;3.83;100.00
18988;BME280;5494;51.796;10.952;2024-03-25T03:22:03;97665.84;;;3.81;100.00
18988;BME280;5494;51.796;10.952;2024-03-25T03:24:29;97678.06;;;3.76;100.00
18988;BME280;5494;51.796;10.952;2024-03-25T03:26:56;97675.78;;;3.70;100.00
18988;BME280;5494;51.796;10.952;2024-03-25T03:29:23;97682.25;;;3.79;100.00
18988;BME280;5494;51.796;10.952;2024-03-25T03:31:51;97689.88;;;3.80;100.00
18988;BME280;5494;51.796;10.952;2024-03-25T03:34:18;97686.56;;;3.78;100.00
18988;BME280;5494;51.796;10.952;2024-03-25T03:36:44;97687.22;;;3.63;100.00
18988;BME280;5494;51.796;10.952;2024-03-25T03:39:12;97699.44;;;3.58;100.00
18988;BME280;5494;51.796;10.952;2024-03-25T03:41:39;97694.31;;;3.58;100.00
18988;BME280;5494;51.796;10.952;2024-03-25T03:44:06;97700.41;;;3.55;100.00
18988;BME280;5494;51.796;10.952;2024-03-25T03:46:32;97692.50;;;3.60;100.00
18988;BME280;5494;51.796;10.952;2024-03-25T03:49:00;97709.63;;;3.60;100.00
18988;BME280;5494;51.796;10.952;2024-03-25T03:51:26;97700.34;;;3.57;100.00
18988;BME280;5494;51.796;10.952;2024-03-25T03:53:53;97694.88;;;3.65;100.00
18988;BME280;5494;51.796;10.952;2024-03-25T03:56:20;97706.75;;;3.67;100.00
18988;BME280;5494;51.796;10.952;2024-03-25T03:58:47;97727.28;;;3.67;100.00
18988;BME280;5494;51.796;10.952;2024-03-25T04:01:16;97725.00;;;3.61;100.00
18988;BME280;5494;51.796;10.952;2024-03-25T04:03:46;97729.28;;;3.61;100.00
18988;BME280;5494;51.796;10.952;2024-03-25T04:06:13;97737.50;;;3.69;100.00
18988;BME280;5494;51.796;10.952;2024-03-25T04:08:40;97734.88;;;3.70;100.00
18988;BME280;5494;51.796;10.952;2024-03-25T04:11:07;97745.53;;;3.81;100.00
18988;BME280;5494;51.796;10.952;2024-03-25T04:13:36;97733.44;;;3.83;100.00
18988;BME280;5494;51.796;10.952;2024-03-25T04:16:04;97740.94;;;3.88;100.00
18988;BME280;5494;51.796;10.952;2024-03-25T04:18:33;97738.38;;;3.88;100.00
18988;BME280;5494;51.796;10.952;2024-03-25T04:21:00;97746.28;;;3.83;100.00
18988;BME280;5494;51.796;10.952;2024-03-25T04:23:27;97740.50;;;3.99;100.00
18988;BME280;5494;51.796;10.952;2024-03-25T04:25:53;97748.25;;;3.97;100.00
18988;BME280;5494;51.796;10.952;2024-03-25T04:28:21;97739.50;;;4.01;100.00
18988;BME280;5494;51.796;10.952;2024-03-25T04:30:53;97740.22;;;4.05;100.00
18988;BME280;5494;51.796;10.952;2024-03-25T04:33:21;97752.16;;;4.06;100.00
18988;BME280;5494;51.796;10.952;2024-03-25T04:35:47;97752.16;;;4.06;100.00
18988;BME280;5494;51.796;10.952;2024-03-25T04:38:16;97755.50;;;4.08;100.00
18988;BME280;5494;51.796;10.952;2024-03-25T04:40:42;97766.25;;;4.16;100.00
18988;BME280;5494;51.796;10.952;2024-03-25T04:43:11;97769.34;;;4.24;100.00
18988;BME280;5494;51.796;10.952;2024-03-25T04:45:38;97774.63;;;4.21;100.00
18988;BME280;5494;51.796;10.952;2024-03-25T04:48:06;97781.19;;;4.28;100.00
18988;BME280;5494;51.796;10.952;2024-03-25T04:50:33;97775.31;;;4.24;100.00
18988;BME280;5494;51.796;10.952;2024-03-25T04:52:59;97772.41;;;4.32;100.00
18988;BME280;5494;51.796;10.952;2024-03-25T04:55:25;97778.44;;;4.31;100.00
18988;BME280;5494;51.796;10.952;2024-03-25T04:57:52;97781.72;;;4.34;100.00
18988;BME280;5494;51.796;10.952;2024-03-25T05:00:19;97791.81;;;4.39;100.00
18988;BME280;5494;51.796;10.952;2024-03-25T05:02:45;97786.78;;;4.36;100.00
18988;BME280;5494;51.796;10.952;2024-03-25T05:05:12;97781.78;;;4.33;100.00
18988;BME280;5494;51.796;10.952;2024-03-25T05:07:39;97783.47;;;4.34;100.00
18988;BME280;5494;51.796;10.952;2024-03-25T05:10:06;97793.31;;;4.24;100.00
18988;BME280;5494;51.796;10.952;2024-03-25T05:12:32;97790.81;;;4.23;100.00
18988;BME280;5494;51.796;10.952;2024-03-25T05:14:59;97785.94;;;4.17;100.00
18988;BME280;5494;51.796;10.952;2024-03-25T05:17:25;97791.34;;;4.11;100.00
18988;BME280;5494;51.796;10.952;2024-03-25T05:19:51;97795.66;;;4.10;100.00
18988;BME280;5494;51.796;10.952;2024-03-25T05:22:18;97806.78;;;4.11;100.00
18988;BME280;5494;51.796;10.952;2024-03-25T05:24:45;97818.97;;;4.07;100.00
18988;BME280;5494;51.796;10.952;2024-03-25T05:27:11;97819.44;;;4.15;100.00
18988;BME280;5494;51.796;10.952;2024-03-25T05:29:37;97817.63;;;4.17;100.00
18988;BME280;5494;51.796;10.952;2024-03-25T05:32:05;97815.47;;;4.08;100.00
18988;BME280;5494;51.796;10.952;2024-03-25T05:34:31;97828.13;;;4.13;100.00
18988;BME280;5494;51.796;10.952;2024-03-25T05:36:57;97827.53;;;4.26;100.00
18988;BME280;5494;51.796;10.952;2024-03-25T05:39:25;97822.56;;;4.42;100.00
18988;BME280;5494;51.796;10.952;2024-03-25T05:41:51;97818.00;;;4.85;100.00
18988;BME280;5494;51.796;10.952;2024-03-25T05:44:17;97827.03;;;5.29;100.00
18988;BME280;5494;51.796;10.952;2024-03-25T05:46:43;97823.72;;;5.62;100.00
18988;BME280;5494;51.796;10.952;2024-03-25T05:49:09;97822.50;;;5.69;100.00
18988;BME280;5494;51.796;10.952;2024-03-25T05:51:36;97829.50;;;5.84;100.00
18988;BME280;5494;51.796;10.952;2024-03-25T05:54:02;97829.94;;;5.75;100.00
18988;BME280;5494;51.796;10.952;2024-03-25T05:56:30;97839.81;;;5.67;100.00
18988;BME280;5494;51.796;10.952;2024-03-25T05:58:56;97824.78;;;5.75;100.00
18988;BME280;5494;51.796;10.952;2024-03-25T06:01:23;97843.00;;;5.89;100.00
18988;BME280;5494;51.796;10.952;2024-03-25T06:03:49;97843.97;;;5.86;100.00
18988;BME280;5494;51.796;10.952;2024-03-25T06:06:16;97852.22;;;5.76;100.00
18988;BME280;5494;51.796;10.952;2024-03-25T06:08:42;97858.09;;;6.14;100.00
18988;BME280;5494;51.796;10.952;2024-03-25T06:11:09;97863.47;;;6.26;100.00
18988;BME280;5494;51.796;10.952;2024-03-25T06:13:39;97868.75;;;6.41;100.00
18988;BME280;5494;51.796;10.952;2024-03-25T06:16:08;97866.75;;;6.46;100.00
18988;BME280;5494;51.796;10.952;2024-03-25T06:18:34;97873.16;;;6.39;100.00
18988;BME280;5494;51.796;10.952;2024-03-25T06:21:00;97875.59;;;6.42;100.00
18988;BME280;5494;51.796;10.952;2024-03-25T06:23:28;97879.47;;;6.33;100.00
18988;BME280;5494;51.796;10.952;2024-03-25T06:25:55;97886.94;;;6.55;100.00
18988;BME280;5494;51.796;10.952;2024-03-25T06:28:22;97896.97;;;6.44;100.00
18988;BME280;5494;51.796;10.952;2024-03-25T06:30:51;97892.69;;;6.27;100.00
18988;BME280;5494;51.796;10.952;2024-03-25T06:33:36;97900.38;;;5.94;100.00
18988;BME280;5494;51.796;10.952;2024-03-25T06:36:22;97900.50;;;5.91;100.00
18988;BME280;5494;51.796;10.952;2024-03-25T06:38:49;97901.28;;;5.93;100.00
18988;BME280;5494;51.796;10.952;2024-03-25T06:41:16;97910.16;;;5.69;100.00
18988;BME280;5494;51.796;10.952;2024-03-25T06:43:42;97918.06;;;5.66;100.00
18988;BME280;5494;51.796;10.952;2024-03-25T06:46:10;97916.16;;;5.52;100.00
18988;BME280;5494;51.796;10.952;2024-03-25T06:48:36;97926.63;;;5.30;100.00
18988;BME280;5494;51.796;10.952;2024-03-25T06:51:04;97928.22;;;5.14;100.00
18988;BME280;5494;51.796;10.952;2024-03-25T06:53:31;97922.88;;;5.19;100.00
18988;BME280;5494;51.796;10.952;2024-03-25T06:55:58;97923.03;;;5.33;100.00
18988;BME280;5494;51.796;10.952;2024-03-25T06:58:26;97925.91;;;5.45;100.00
18988;BME280;5494;51.796;10.952;2024-03-25T07:00:55;97933.13;;;5.56;100.00
18988;BME280;5494;51.796;10.952;2024-03-25T07:03:23;97936.59;;;5.55;100.00
18988;BME280;5494;51.796;10.952;2024-03-25T07:05:51;97934.25;;;5.50;100.00
18988;BME280;5494;51.796;10.952;2024-03-25T07:08:18;97945.28;;;5.35;100.00
18988;BME280;5494;51.796;10.952;2024-03-25T07:10:45;97939.00;;;5.41;100.00
18988;BME280;5494;51.796;10.952;2024-03-25T07:13:12;97941.09;;;5.33;100.00
18988;BME280;5494;51.796;10.952;2024-03-25T07:15:39;97945.34;;;5.15;100.00
18988;BME280;5494;51.796;10.952;2024-03-25T07:18:06;97936.00;;;5.12;100.00
18988;BME280;5494;51.796;10.952;2024-03-25T07:20:34;97947.72;;;5.20;100.00
18988;BME280;5494;51.796;10.952;2024-03-25T07:23:00;97937.50;;;5.18;100.00
18988;BME280;5494;51.796;10.952;2024-03-25T07:25:26;97941.66;;;5.21;100.00
18988;BME280;5494;51.796;10.952;2024-03-25T07:27:53;97939.69;;;5.44;100.00
18988;BME280;5494;51.796;10.952;2024-03-25T07:30:19;97943.97;;;5.63;100.00
18988;BME280;5494;51.796;10.952;2024-03-25T07:32:48;97954.81;;;5.69;100.00
18988;BME280;5494;51.796;10.952;2024-03-25T07:35:15;97953.00;;;5.90;100.00
18988;BME280;5494;51.796;10.952;2024-03-25T07:37:43;97954.22;;;6.00;100.00
18988;BME280;5494;51.796;10.952;2024-03-25T07:40:11;97953.56;;;6.14;100.00
18988;BME280;5494;51.796;10.952;2024-03-25T07:42:38;97963.69;;;6.51;100.00
18988;BME280;5494;51.796;10.952;2024-03-25T07:45:06;97972.09;;;6.72;100.00
18988;BME280;5494;51.796;10.952;2024-03-25T07:47:33;97972.19;;;7.03;100.00
18988;BME280;5494;51.796;10.952;2024-03-25T07:49:59;97969.47;;;7.38;100.00
18988;BME280;5494;51.796;10.952;2024-03-25T07:52:26;97977.94;;;7.40;100.00
18988;BME280;5494;51.796;10.952;2024-03-25T07:54:53;97986.69;;;7.22;100.00
18988;BME280;5494;51.796;10.952;2024-03-25T07:57:20;97984.78;;;7.09;100.00
18988;BME280;5494;51.796;10.952;2024-03-25T07:59:47;97984.34;;;7.01;100.00
18988;BME280;5494;51.796;10.952;2024-03-25T08:02:13;97987.88;;;7.16;100.00
18988;BME280;5494;51.796;10.952;2024-03-25T08:04:40;97985.81;;;7.38;100.00
18988;BME280;5494;51.796;10.952;2024-03-25T08:07:06;97985.69;;;7.40;100.00
18988;BME280;5494;51.796;10.952;2024-03-25T08:09:33;97984.41;;;7.33;100.00
18988;BME280;5494;51.796;10.952;2024-03-25T08:12:00;97994.13;;;7.28;100.00
18988;BME280;5494;51.796;10.952;2024-03-25T08:14:27;97995.84;;;7.60;100.00
18988;BME280;5494;51.796;10.952;2024-03-25T08:16:53;97996.97;;;7.70;100.00
18988;BME280;5494;51.796;10.952;2024-03-25T08:19:19;97994.13;;;7.90;100.00
18988;BME280;5494;51.796;10.952;2024-03-25T08:21:46;97994.44;;;8.30;100.00
18988;BME280;5494;51.796;10.952;2024-03-25T08:24:14;97998.75;;;8.31;100.00
18988;BME280;5494;51.796;10.952;2024-03-25T08:26:40;98005.84;;;8.27;100.00
18988;BME280;5494;51.796;10.952;2024-03-25T08:29:08;98009.50;;;8.39;100.00
18988;BME280;5494;51.796;10.952;2024-03-25T08:31:34;98012.09;;;8.39;100.00
18988;BME280;5494;51.796;10.952;2024-03-25T08:34:00;98009.97;;;8.46;100.00
18988;BME280;5494;51.796;10.952;2024-03-25T08:36:26;98007.94;;;8.37;100.00
18988;BME280;5494;51.796;10.952;2024-03-25T08:38:52;98009.97;;;8.46;100.00
18988;BME280;5494;51.796;10.952;2024-03-25T08:41:19;98017.41;;;8.66;100.00
18988;BME280;5494;51.796;10.952;2024-03-25T08:43:45;98008.28;;;8.75;100.00
18988;BME280;5494;51.796;10.952;2024-03-25T08:46:13;98002.72;;;8.81;100.00
18988;BME280;5494;51.796;10.952;2024-03-25T08:48:39;97998.56;;;8.92;100.00
18988;BME280;5494;51.796;10.952;2024-03-25T08:51:05;98002.56;;;8.84;100.00
18988;BME280;5494;51.796;10.952;2024-03-25T08:53:32;98009.34;;;8.42;100.00
18988;BME280;5494;51.796;10.952;2024-03-25T08:55:58;98003.28;;;8.72;100.00
18988;BME280;5494;51.796;10.952;2024-03-25T08:58:24;98012.72;;;8.87;100.00
18988;BME280;5494;51.796;10.952;2024-03-25T09:00:53;98013.09;;;8.81;100.00
18988;BME280;5494;51.796;10.952;2024-03-25T09:03:20;98009.44;;;8.85;100.00
18988;BME280;5494;51.796;10.952;2024-03-25T09:05:47;98010.78;;;8.76;100.00
18988;BME280;5494;51.796;10.952;2024-03-25T09:08:16;98018.25;;;8.66;100.00
18988;BME280;5494;51.796;10.952;2024-03-25T09:10:43;98017.34;;;8.38;100.00
18988;BME280;5494;51.796;10.952;2024-03-25T09:13:29;98011.00;;;8.43;98.90
18988;BME280;5494;51.796;10.952;2024-03-25T09:15:56;98011.38;;;8.51;99.08
18988;BME280;5494;51.796;10.952;2024-03-25T09:18:24;98014.13;;;8.92;98.74
18988;BME280;5494;51.796;10.952;2024-03-25T09:20:52;98010.91;;;10.13;91.26
18988;BME280;5494;51.796;10.952;2024-03-25T09:23:18;98022.38;;;10.63;84.86
18988;BME280;5494;51.796;10.952;2024-03-25T09:25:51;98013.59;;;10.39;83.45
18988;BME280;5494;51.796;10.952;2024-03-25T09:28:18;98021.50;;;9.69;88.65
18988;BME280;5494;51.796;10.952;2024-03-25T09:30:44;98016.72;;;9.21;93.42
18988;BME280;5494;51.796;10.952;2024-03-25T09:33:14;98031.53;;;8.90;98.47
18988;BME280;5494;51.796;10.952;2024-03-25T09:35:41;98033.34;;;8.74;100.00
18988;BME280;5494;51.796;10.952;2024-03-25T09:38:08;98032.72;;;8.71;100.00
18988;BME280;5494;51.796;10.952;2024-03-25T09:40:35;98030.84;;;8.73;100.00
18988;BME280;5494;51.796;10.952;2024-03-25T09:43:03;98030.69;;;8.76;100.00
18988;BME280;5494;51.796;10.952;2024-03-25T09:45:31;98033.28;;;8.76;99.10
18988;BME280;5494;51.796;10.952;2024-03-25T09:47:58;98036.22;;;8.69;100.00
18988;BME280;5494;51.796;10.952;2024-03-25T09:50:27;98039.78;;;8.53;100.00
18988;BME280;5494;51.796;10.952;2024-03-25T09:52:54;98043.78;;;8.58;100.00
18988;BME280;5494;51.796;10.952;2024-03-25T09:55:21;98035.19;;;8.72;100.00
18988;BME280;5494;51.796;10.952;2024-03-25T09:57:48;98035.91;;;9.04;99.57
18988;BME280;5494;51.796;10.952;2024-03-25T10:00:14;98031.19;;;9.39;96.36
18988;BME280;5494;51.796;10.952;2024-03-25T10:02:44;98034.09;;;9.61;94.65
18988;BME280;5494;51.796;10.952;2024-03-25T10:05:10;98024.63;;;9.88;94.25
18988;BME280;5494;51.796;10.952;2024-03-25T10:07:37;98026.53;;;10.26;87.45
18988;BME280;5494;51.796;10.952;2024-03-25T10:10:06;98022.75;;;10.44;83.09
18988;BME280;5494;51.796;10.952;2024-03-25T10:12:35;98022.53;;;10.35;85.30
18988;BME280;5494;51.796;10.952;2024-03-25T10:15:02;98017.91;;;10.65;79.18
18988;BME280;5494;51.796;10.952;2024-03-25T10:17:30;98024.44;;;10.58;76.31
18988;BME280;5494;51.796;10.952;2024-03-25T10:19:57;98023.41;;;10.60;68.04
18988;BME280;5494;51.796;10.952;2024-03-25T10:22:23;98028.25;;;9.72;67.88
18988;BME280;5494;51.796;10.952;2024-03-25T10:24:49;98019.91;;;9.81;68.77
18988;BME280;5494;51.796;10.952;2024-03-25T10:27:22;98025.25;;;9.92;68.39
18988;BME280;5494;51.796;10.952;2024-03-25T10:29:51;98027.88;;;9.78;68.38
18988;BME280;5494;51.796;10.952;2024-03-25T10:32:19;98030.56;;;10.17;69.71
18988;BME280;5494;51.796;10.952;2024-03-25T10:34:45;98025.81;;;10.51;67.07
18988;BME280;5494;51.796;10.952;2024-03-25T10:37:13;98023.47;;;10.98;64.93
18988;BME280;5494;51.796;10.952;2024-03-25T10:39:47;98026.94;;;11.48;61.64
18988;BME280;5494;51.796;10.952;2024-03-25T10:42:18;98028.75;;;10.97;63.71
18988;BME280;5494;51.796;10.952;2024-03-25T10:44:47;98022.41;;;10.88;64.18
18988;BME280;5494;51.796;10.952;2024-03-25T10:47:28;98019.81;;;10.88;63.26
18988;BME280;5494;51.796;10.952;2024-03-25T10:49:58;98025.75;;;10.78;61.46
18988;BME280;5494;51.796;10.952;2024-03-25T10:52:26;98025.50;;;10.68;64.81
18988;BME280;5494;51.796;10.952;2024-03-25T10:54:54;98034.13;;;10.56;65.16
18988;BME280;5494;51.796;10.952;2024-03-25T10:57:22;98025.00;;;11.14;64.78
18988;BME280;5494;51.796;10.952;2024-03-25T11:00:01;98015.00;;;11.95;60.53
18988;BME280;5494;51.796;10.952;2024-03-25T11:02:27;98015.97;;;12.05;58.39
18988;BME280;5494;51.796;10.952;2024-03-25T11:04:54;98017.97;;;12.60;56.16
18988;BME280;5494;51.796;10.952;2024-03-25T11:07:30;98014.06;;;12.54;52.88
18988;BME280;5494;51.796;10.952;2024-03-25T11:10:04;98022.84;;;12.06;54.18
18988;BME280;5494;51.796;10.952;2024-03-25T11:12:36;98020.13;;;11.71;54.50
18988;BME280;5494;51.796;10.952;2024-03-25T11:15:06;98012.06;;;11.50;53.25
18988;BME280;5494;51.796;10.952;2024-03-25T11:17:34;98016.34;;;11.38;53.60
18988;BME280;5494;51.796;10.952;2024-03-25T11:20:15;98014.50;;;11.02;56.26
18988;BME280;5494;51.796;10.952;2024-03-25T11:22:48;98008.78;;;11.10;56.78
18988;BME280;5494;51.796;10.952;2024-03-25T11:25:15;98013.22;;;11.21;54.32
18988;BME280;5494;51.796;10.952;2024-03-25T11:27:44;98009.72;;;10.96;51.45
18988;BME280;5494;51.796;10.952;2024-03-25T11:30:13;98013.25;;;10.95;52.06
18988;BME280;5494;51.796;10.952;2024-03-25T11:32:45;98014.09;;;10.83;51.34
18988;BME280;5494;51.796;10.952;2024-03-25T11:35:11;98012.09;;;10.61;52.06
18988;BME280;5494;51.796;10.952;2024-03-25T11:37:42;98013.84;;;10.48;53.89
18988;BME280;5494;51.796;10.952;2024-03-25T11:40:10;98013.16;;;10.84;54.32
18988;BME280;5494;51.796;10.952;2024-03-25T11:42:38;98007.63;;;11.14;52.88
18988;BME280;5494;51.796;10.952;2024-03-25T11:45:05;98018.44;;;10.83;53.22
18988;BME280;5494;51.796;10.952;2024-03-25T11:47:34;98014.59;;;10.63;52.99
18988;BME280;5494;51.796;10.952;2024-03-25T11:50:08;98017.31;;;11.12;51.85
18988;BME280;5494;51.796;10.952;2024-03-25T11:52:34;98007.34;;;11.06;51.28
18988;BME280;5494;51.796;10.952;2024-03-25T11:55:03;98023.25;;;10.89;51.91
18988;BME280;5494;51.796;10.952;2024-03-25T11:57:30;98014.31;;;11.18;49.26
18988;BME280;5494;51.796;10.952;2024-03-25T11:59:58;98004.06;;;11.40;49.03
18988;BME280;5494;51.796;10.952;2024-03-25T12:02:27;98010.31;;;11.38;49.14
18988;BME280;5494;51.796;10.952;2024-03-25T12:04:54;98008.44;;;11.27;48.95
18988;BME280;5494;51.796;10.952;2024-03-25T12:07:21;98003.78;;;11.32;49.32
18988;BME280;5494;51.796;10.952;2024-03-25T12:09:47;97999.00;;;11.14;49.25
18988;BME280;5494;51.796;10.952;2024-03-25T12:12:33;98003.88;;;10.93;50.08
18988;BME280;5494;51.796;10.952;2024-03-25T12:14:59;98003.38;;;10.75;53.06
18988;BME280;5494;51.796;10.952;2024-03-25T12:17:27;98008.16;;;10.69;52.60
18988;BME280;5494;51.796;10.952;2024-03-25T12:20:02;98012.97;;;10.35;54.47
18988;BME280;5494;51.796;10.952;2024-03-25T12:22:30;98015.78;;;10.45;54.03
18988;BME280;5494;51.796;10.952;2024-03-25T12:24:59;98017.78;;;10.54;53.16
18988;BME280;5494;51.796;10.952;2024-03-25T12:27:26;98013.16;;;10.32;53.07
18988;BME280;5494;51.796;10.952;2024-03-25T12:29:59;98000.94;;;10.47;53.64
18988;BME280;5494;51.796;10.952;2024-03-25T12:32:37;98016.63;;;10.45;53.64
18988;BME280;5494;51.796;10.952;2024-03-25T12:35:08;98011.22;;;10.48;54.27
18988;BME280;5494;51.796;10.952;2024-03-25T12:37:35;98010.00;;;10.54;53.44
18988;BME280;5494;51.796;10.952;2024-03-25T12:40:02;98008.47;;;10.64;52.53
18988;BME280;5494;51.796;10.952;2024-03-25T12:42:29;97998.38;;;10.97;50.69
18988;BME280;5494;51.796;10.952;2024-03-25T12:44:56;98004.84;;;10.92;51.38
18988;BME280;5494;51.796;10.952;2024-03-25T12:47:22;98001.19;;;10.94;52.41
18988;BME280;5494;51.796;10.952;2024-03-25T12:49:49;98010.88;;;10.92;51.21
18988;BME280;5494;51.796;10.952;2024-03-25T12:52:19;98012.19;;;11.23;50.09
18988;BME280;5494;51.796;10.952;2024-03-25T12:54:45;98006.69;;;11.15;50.20
18988;BME280;5494;51.796;10.952;2024-03-25T12:57:11;98008.88;;;11.09;50.83
18988;BME280;5494;51.796;10.952;2024-03-25T12:59:38;98009.72;;;11.09;51.75
18988;BME280;5494;51.796;10.952;2024-03-25T13:02:05;98001.28;;;10.68;52.73
18988;BME280;5494;51.796;10.952;2024-03-25T13:04:35;98001.19;;;10.69;52.17
18988;BME280;5494;51.796;10.952;2024-03-25T13:07:01;97998.25;;;10.61;53.38
18988;BME280;5494;51.796;10.952;2024-03-25T13:09:29;97994.31;;;10.68;52.70
18988;BME280;5494;51.796;10.952;2024-03-25T13:11:56;97994.09;;;10.58;51.22
18988;BME280;5494;51.796;10.952;2024-03-25T13:14:22;97987.09;;;10.46;51.54
18988;BME280;5494;51.796;10.952;2024-03-25T13:16:49;97997.81;;;10.42;51.68
18988;BME280;5494;51.796;10.952;2024-03-25T13:19:15;97993.63;;;10.39;56.01
18988;BME280;5494;51.796;10.952;2024-03-25T13:21:43;97981.84;;;10.73;56.45
18988;BME280;5494;51.796;10.952;2024-03-25T13:24:13;97983.63;;;10.85;55.15
18988;BME280;5494;51.796;10.952;2024-03-25T13:26:41;97985.06;;;10.89;54.18
18988;BME280;5494;51.796;10.952;2024-03-25T13:29:07;97987.13;;;10.59;55.12
18988;BME280;5494;51.796;10.952;2024-03-25T13:31:33;97977.63;;;10.33;55.09
18988;BME280;5494;51.796;10.952;2024-03-25T13:34:00;97978.44;;;10.20;55.08
18988;BME280;5494;51.796;10.952;2024-03-25T13:36:27;97973.56;;;10.29;55.45
18988;BME280;5494;51.796;10.952;2024-03-25T13:38:53;97979.53;;;10.56;55.54
18988;BME280;5494;51.796;10.952;2024-03-25T13:41:20;97981.00;;;10.60;52.84
18988;BME280;5494;51.796;10.952;2024-03-25T13:43:48;97978.06;;;10.39;55.75
18988;BME280;5494;51.796;10.952;2024-03-25T13:46:14;97970.91;;;10.43;54.44
18988;BME280;5494;51.796;10.952;2024-03-25T13:48:40;97974.00;;;10.35;55.25
18988;BME280;5494;51.796;10.952;2024-03-25T13:51:07;97984.22;;;10.51;54.16
18988;BME280;5494;51.796;10.952;2024-03-25T13:53:33;97983.06;;;10.55;54.18
18988;BME280;5494;51.796;10.952;2024-03-25T13:55:59;97972.88;;;10.52;55.77
18988;BME280;5494;51.796;10.952;2024-03-25T13:58:26;97979.97;;;10.62;56.13
18988;BME280;5494;51.796;10.952;2024-03-25T14:00:53;97965.91;;;10.65;57.04
18988;BME280;5494;51.796;10.952;2024-03-25T14:03:19;97970.00;;;10.69;55.63
18988;BME280;5494;51.796;10.952;2024-03-25T14:05:46;97967.81;;;10.76;53.90
18988;BME280;5494;51.796;10.952;2024-03-25T14:08:12;97964.13;;;10.40;55.36
18988;BME280;5494;51.796;10.952;2024-03-25T14:10:38;97967.69;;;10.52;55.32
18988;BME280;5494;51.796;10.952;2024-03-25T14:13:04;97959.03;;;10.51;54.18
18988;BME280;5494;51.796;10.952;2024-03-25T14:15:31;97961.56;;;10.53;54.74
18988;BME280;5494;51.796;10.952;2024-03-25T14:17:59;97959.25;;;10.23;53.83
18988;BME280;5494;51.796;10.952;2024-03-25T14:20:25;97951.56;;;10.07;54.70
18988;BME280;5494;51.796;10.952;2024-03-25T14:22:52;97957.44;;;10.23;56.78
18988;BME280;5494;51.796;10.952;2024-03-25T14:25:18;97957.38;;;10.38;55.27
18988;BME280;5494;51.796;10.952;2024-03-25T14:27:44;97959.50;;;10.18;54.38
18988;BME280;5494;51.796;10.952;2024-03-25T14:30:12;97952.31;;;9.56;55.79
18988;BME280;5494;51.796;10.952;2024-03-25T14:32:38;97958.13;;;9.32;57.74
18988;BME280;5494;51.796;10.952;2024-03-25T14:35:07;97949.53;;;9.59;58.21
18988;BME280;5494;51.796;10.952;2024-03-25T14:37:33;97943.16;;;9.77;57.44
18988;BME280;5494;51.796;10.952;2024-03-25T14:39:59;97947.25;;;9.81;57.80
18988;BME280;5494;51.796;10.952;2024-03-25T14:42:25;97941.97;;;9.68;58.09
18988;BME280;5494;51.796;10.952;2024-03-25T14:44:52;97938.00;;;9.63;58.98
18988;BME280;5494;51.796;10.952;2024-03-25T14:47:19;97936.63;;;9.30;60.98
18988;BME280;5494;51.796;10.952;2024-03-25T14:49:45;97931.28;;;9.19;61.25
18988;BME280;5494;51.796;10.952;2024-03-25T14:52:13;97931.00;;;9.24;62.31
18988;BME280;5494;51.796;10.952;2024-03-25T14:54:39;97930.56;;;9.03;61.86
18988;BME280;5494;51.796;10.952;2024-03-25T14:57:05;97930.00;;;9.12;60.73
18988;BME280;5494;51.796;10.952;2024-03-25T14:59:31;97927.13;;;9.02;62.98
18988;BME280;5494;51.796;10.952;2024-03-25T15:02:00;97925.16;;;9.06;61.66
18988;BME280;5494;51.796;10.952;2024-03-25T15:04:27;97927.59;;;8.95;62.18
18988;BME280;5494;51.796;10.952;2024-03-25T15:06:54;97919.41;;;9.15;62.96
18988;BME280;5494;51.796;10.952;2024-03-25T15:09:22;97919.41;;;9.29;62.07
18988;BME280;5494;51.796;10.952;2024-03-25T15:11:49;97923.13;;;9.25;62.16
18988;BME280;5494;51.796;10.952;2024-03-25T15:14:15;97915.91;;;9.16;61.51
18988;BME280;5494;51.796;10.952;2024-03-25T15:16:41;97921.91;;;9.31;61.31
18988;BME280;5494;51.796;10.952;2024-03-25T15:19:08;97922.28;;;9.25;61.18
18988;BME280;5494;51.796;10.952;2024-03-25T15:21:34;97921.06;;;9.30;61.19
18988;BME280;5494;51.796;10.952;2024-03-25T15:24:00;97920.22;;;9.30;61.85
18988;BME280;5494;51.796;10.952;2024-03-25T15:26:29;97915.84;;;9.44;61.39
18988;BME280;5494;51.796;10.952;2024-03-25T15:28:55;97912.72;;;9.39;60.86
18988;BME280;5494;51.796;10.952;2024-03-25T15:31:22;97910.34;;;9.49;62.83
18988;BME280;5494;51.796;10.952;2024-03-25T15:33:48;97908.59;;;9.49;63.14